sensor_id;sensor_type;location;lat;lon;timestamp;pressure;altitude;pressure_sealevel;temperature;humidity
28626;BME280;18905;42.668;23.364;2023-03-13T00:01:54;95319.59;;;2.45;87.71
28626;BME280;18905;42.668;23.364;2023-03-13T00:04:20;95317.94;;;2.24;89.94
28626;BME280;18905;42.668;23.364;2023-03-13T00:06:45;95310.03;;;2.54;89.61
28626;BME280;18905;42.668;23.364;2023-03-13T00:09:13;95317.06;;;2.85;88.04
28626;BME280;18905;42.668;23.364;2023-03-13T00:11:39;95309.06;;;2.95;85.99
28626;BME280;18905;42.668;23.364;2023-03-13T00:14:05;95322.41;;;2.90;87.03
28626;BME280;18905;42.668;23.364;2023-03-13T00:16:31;95301.88;;;2.95;86.26
28626;BME280;18905;42.668;23.364;2023-03-13T00:18:58;95322.72;;;3.18;84.97
28626;BME280;18905;42.668;23.364;2023-03-13T00:21:27;95327.78;;;3.30;86.18
28626;BME280;18905;42.668;23.364;2023-03-13T00:23:54;95330.13;;;2.81;89.44
28626;BME280;18905;42.668;23.364;2023-03-13T00:26:24;95334.09;;;2.64;90.90
28626;BME280;18905;42.668;23.364;2023-03-13T00:28:50;95341.84;;;2.80;90.20
28626;BME280;18905;42.668;23.364;2023-03-13T00:31:20;95335.66;;;2.60;91.14
28626;BME280;18905;42.668;23.364;2023-03-13T00:33:48;95340.13;;;2.44;90.00
28626;BME280;18905;42.668;23.364;2023-03-13T00:36:19;95337.25;;;2.51;90.20
28626;BME280;18905;42.668;23.364;2023-03-13T00:38:45;95330.25;;;2.40;90.70
28626;BME280;18905;42.668;23.364;2023-03-13T00:41:16;95322.75;;;2.27;90.83
28626;BME280;18905;42.668;23.364;2023-03-13T00:43:43;95333.72;;;2.40;90.36
28626;BME280;18905;42.668;23.364;2023-03-13T00:46:09;95327.47;;;2.10;91.96
28626;BME280;18905;42.668;23.364;2023-03-13T00:48:35;95339.50;;;1.76;94.17
28626;BME280;18905;42.668;23.364;2023-03-13T00:51:01;95337.31;;;1.63;97.07
28626;BME280;18905;42.668;23.364;2023-03-13T00:53:27;95315.56;;;1.81;95.89
28626;BME280;18905;42.668;23.364;2023-03-13T00:58:21;95331.44;;;2.02;94.42
28626;BME280;18905;42.668;23.364;2023-03-13T01:00:46;95309.47;;;1.80;93.61
28626;BME280;18905;42.668;23.364;2023-03-13T01:03:12;95337.59;;;1.66;94.81
28626;BME280;18905;42.668;23.364;2023-03-13T01:05:37;95335.81;;;1.77;93.99
28626;BME280;18905;42.668;23.364;2023-03-13T01:08:03;95322.53;;;1.45;95.61
28626;BME280;18905;42.668;23.364;2023-03-13T01:10:28;95332.84;;;1.73;95.89
28626;BME280;18905;42.668;23.364;2023-03-13T01:12:53;95309.50;;;1.85;93.86
28626;BME280;18905;42.668;23.364;2023-03-13T01:15:19;95334.91;;;2.08;92.29
28626;BME280;18905;42.668;23.364;2023-03-13T01:17:45;95330.09;;;2.05;91.13
28626;BME280;18905;42.668;23.364;2023-03-13T01:20:11;95341.34;;;2.22;91.10
28626;BME280;18905;42.668;23.364;2023-03-13T01:22:37;95329.19;;;2.36;89.61
28626;BME280;18905;42.668;23.364;2023-03-13T01:25:03;95328.16;;;2.47;87.62
28626;BME280;18905;42.668;23.364;2023-03-13T01:27:28;95315.09;;;2.45;86.09
28626;BME280;18905;42.668;23.364;2023-03-13T01:29:54;95330.31;;;2.55;86.42
28626;BME280;18905;42.668;23.364;2023-03-13T01:32:19;95336.22;;;2.72;86.40
28626;BME280;18905;42.668;23.364;2023-03-13T01:34:45;95333.56;;;2.77;85.94
28626;BME280;18905;42.668;23.364;2023-03-13T01:37:10;95340.75;;;2.66;85.62
28626;BME280;18905;42.668;23.364;2023-03-13T01:39:35;95347.47;;;2.89;84.68
28626;BME280;18905;42.668;23.364;2023-03-13T01:42:02;95342.41;;;2.92;83.50
28626;BME280;18905;42.668;23.364;2023-03-13T01:44:28;95350.13;;;2.84;83.61
28626;BME280;18905;42.668;23.364;2023-03-13T01:46:53;95325.84;;;2.80;82.63
28626;BME280;18905;42.668;23.364;2023-03-13T01:49:30;95360.81;;;2.99;82.43
28626;BME280;18905;42.668;23.364;2023-03-13T01:52:07;95354.16;;;3.01;82.39
28626;BME280;18905;42.668;23.364;2023-03-13T01:54:41;95357.13;;;3.10;82.17
28626;BME280;18905;42.668;23.364;2023-03-13T01:57:36;95354.19;;;3.11;82.10
28626;BME280;18905;42.668;23.364;2023-03-13T02:00:08;95357.41;;;3.18;80.97
28626;BME280;18905;42.668;23.364;2023-03-13T02:02:35;95350.72;;;3.16;78.95
28626;BME280;18905;42.668;23.364;2023-03-13T02:05:03;95355.91;;;2.56;85.46
28626;BME280;18905;42.668;23.364;2023-03-13T02:07:46;95358.47;;;1.84;93.14
28626;BME280;18905;42.668;23.364;2023-03-13T02:10:14;95341.72;;;1.47;99.12
28626;BME280;18905;42.668;23.364;2023-03-13T02:12:42;95357.34;;;1.39;100.00
28626;BME280;18905;42.668;23.364;2023-03-13T02:15:20;95359.13;;;1.28;100.00
28626;BME280;18905;42.668;23.364;2023-03-13T02:17:47;95370.06;;;1.32;100.00
28626;BME280;18905;42.668;23.364;2023-03-13T02:20:14;95366.94;;;1.40;100.00
28626;BME280;18905;42.668;23.364;2023-03-13T02:25:43;95374.31;;;0.80;100.00
28626;BME280;18905;42.668;23.364;2023-03-13T02:28:30;95377.25;;;0.78;100.00
28626;BME280;18905;42.668;23.364;2023-03-13T02:30:58;95368.41;;;0.73;100.00
28626;BME280;18905;42.668;23.364;2023-03-13T02:33:29;95368.31;;;0.63;100.00
28626;BME280;18905;42.668;23.364;2023-03-13T02:35:57;95378.69;;;0.64;100.00
28626;BME280;18905;42.668;23.364;2023-03-13T02:38:26;95382.06;;;0.81;100.00
28626;BME280;18905;42.668;23.364;2023-03-13T02:40:54;95391.72;;;0.87;100.00
28626;BME280;18905;42.668;23.364;2023-03-13T02:43:30;95408.44;;;0.88;100.00
28626;BME280;18905;42.668;23.364;2023-03-13T02:46:11;95402.59;;;0.86;100.00
28626;BME280;18905;42.668;23.364;2023-03-13T02:54:05;95423.19;;;0.74;100.00
28626;BME280;18905;42.668;23.364;2023-03-13T02:56:36;95425.03;;;0.52;100.00
28626;BME280;18905;42.668;23.364;2023-03-13T02:59:02;95423.03;;;0.20;100.00
28626;BME280;18905;42.668;23.364;2023-03-13T03:01:27;95427.56;;;0.20;100.00
28626;BME280;18905;42.668;23.364;2023-03-13T03:03:52;95405.47;;;-0.02;100.00
28626;BME280;18905;42.668;23.364;2023-03-13T03:06:18;95429.00;;;0.11;100.00
28626;BME280;18905;42.668;23.364;2023-03-13T03:08:43;95421.97;;;0.00;100.00
28626;BME280;18905;42.668;23.364;2023-03-13T03:11:09;95419.66;;;-0.13;100.00
28626;BME280;18905;42.668;23.364;2023-03-13T03:13:35;95427.44;;;-0.07;100.00
28626;BME280;18905;42.668;23.364;2023-03-13T03:16:08;95423.19;;;-0.24;100.00
28626;BME280;18905;42.668;23.364;2023-03-13T03:18:35;95420.69;;;-0.31;100.00
28626;BME280;18905;42.668;23.364;2023-03-13T03:21:00;95427.94;;;-0.43;100.00
28626;BME280;18905;42.668;23.364;2023-03-13T03:23:26;95454.25;;;-0.25;100.00
28626;BME280;18905;42.668;23.364;2023-03-13T03:25:51;95461.78;;;-0.33;100.00
28626;BME280;18905;42.668;23.364;2023-03-13T03:28:17;95441.75;;;-0.41;100.00
28626;BME280;18905;42.668;23.364;2023-03-13T03:30:42;95467.16;;;-0.61;100.00
28626;BME280;18905;42.668;23.364;2023-03-13T03:33:08;95470.72;;;-0.39;100.00
28626;BME280;18905;42.668;23.364;2023-03-13T03:35:33;95476.25;;;-0.24;100.00
28626;BME280;18905;42.668;23.364;2023-03-13T03:38:02;95465.63;;;-0.41;100.00
28626;BME280;18905;42.668;23.364;2023-03-13T03:40:28;95469.09;;;-0.24;100.00
28626;BME280;18905;42.668;23.364;2023-03-13T03:42:54;95445.38;;;-0.47;100.00
28626;BME280;18905;42.668;23.364;2023-03-13T03:45:19;95480.69;;;-0.13;100.00
28626;BME280;18905;42.668;23.364;2023-03-13T03:47:45;95490.81;;;-0.10;100.00
28626;BME280;18905;42.668;23.364;2023-03-13T03:50:10;95504.56;;;0.03;100.00
28626;BME280;18905;42.668;23.364;2023-03-13T03:52:37;95512.06;;;0.23;100.00
28626;BME280;18905;42.668;23.364;2023-03-13T03:55:03;95508.00;;;0.20;100.00
28626;BME280;18905;42.668;23.364;2023-03-13T03:57:28;95502.44;;;0.22;100.00
28626;BME280;18905;42.668;23.364;2023-03-13T03:59:54;95502.94;;;0.36;100.00
28626;BME280;18905;42.668;23.364;2023-03-13T04:02:19;95508.00;;;0.37;100.00
28626;BME280;18905;42.668;23.364;2023-03-13T04:04:44;95498.56;;;0.46;100.00
28626;BME280;18905;42.668;23.364;2023-03-13T04:07:10;95504.22;;;0.71;100.00
28626;BME280;18905;42.668;23.364;2023-03-13T04:09:35;95519.16;;;0.77;100.00
28626;BME280;18905;42.668;23.364;2023-03-13T04:12:00;95521.75;;;0.72;100.00
28626;BME280;18905;42.668;23.364;2023-03-13T04:14:26;95529.38;;;2.13;100.00
28626;BME280;18905;42.668;23.364;2023-03-13T04:16:51;95547.91;;;3.17;100.00
28626;BME280;18905;42.668;23.364;2023-03-13T04:19:17;95537.19;;;3.99;100.00
28626;BME280;18905;42.668;23.364;2023-03-13T04:21:42;95531.88;;;4.44;100.00
28626;BME280;18905;42.668;23.364;2023-03-13T04:24:07;95524.06;;;4.82;100.00
28626;BME280;18905;42.668;23.364;2023-03-13T04:26:33;95541.22;;;4.31;100.00
28626;BME280;18905;42.668;23.364;2023-03-13T04:28:58;95538.81;;;4.35;100.00
28626;BME280;18905;42.668;23.364;2023-03-13T04:31:24;95522.97;;;4.83;95.30
28626;BME280;18905;42.668;23.364;2023-03-13T04:33:49;95539.91;;;4.19;86.93
28626;BME280;18905;42.668;23.364;2023-03-13T04:36:14;95551.31;;;3.79;90.70
28626;BME280;18905;42.668;23.364;2023-03-13T04:38:40;95563.94;;;4.19;97.41
28626;BME280;18905;42.668;23.364;2023-03-13T04:41:05;95555.41;;;4.52;89.20
28626;BME280;18905;42.668;23.364;2023-03-13T04:43:30;95564.41;;;5.11;90.33
28626;BME280;18905;42.668;23.364;2023-03-13T04:45:56;95561.63;;;5.41;84.36
28626;BME280;18905;42.668;23.364;2023-03-13T04:48:21;95563.59;;;5.84;81.63
28626;BME280;18905;42.668;23.364;2023-03-13T04:50:47;95574.34;;;6.27;77.01
28626;BME280;18905;42.668;23.364;2023-03-13T04:53:13;95577.00;;;6.27;73.24
28626;BME280;18905;42.668;23.364;2023-03-13T04:55:39;95581.31;;;6.23;74.19
28626;BME280;18905;42.668;23.364;2023-03-13T04:58:05;95576.66;;;6.39;74.00
28626;BME280;18905;42.668;23.364;2023-03-13T05:00:30;95573.81;;;6.20;68.34
28626;BME280;18905;42.668;23.364;2023-03-13T05:02:56;95586.13;;;5.73;67.69
28626;BME280;18905;42.668;23.364;2023-03-13T05:05:21;95585.75;;;5.31;68.83
28626;BME280;18905;42.668;23.364;2023-03-13T05:07:47;95585.84;;;4.91;71.05
28626;BME280;18905;42.668;23.364;2023-03-13T05:10:12;95571.44;;;4.62;74.09
28626;BME280;18905;42.668;23.364;2023-03-13T05:12:38;95582.94;;;4.42;76.95
28626;BME280;18905;42.668;23.364;2023-03-13T05:15:03;95582.78;;;3.52;83.32
28626;BME280;18905;42.668;23.364;2023-03-13T05:17:29;95573.31;;;2.83;91.19
28626;BME280;18905;42.668;23.364;2023-03-13T05:19:54;95596.44;;;2.68;95.48
28626;BME280;18905;42.668;23.364;2023-03-13T05:22:19;95592.47;;;2.39;99.26
28626;BME280;18905;42.668;23.364;2023-03-13T05:24:45;95596.78;;;2.13;100.00
28626;BME280;18905;42.668;23.364;2023-03-13T05:27:10;95593.78;;;1.78;100.00
28626;BME280;18905;42.668;23.364;2023-03-13T05:29:35;95594.44;;;1.90;100.00
28626;BME280;18905;42.668;23.364;2023-03-13T05:32:01;95608.22;;;2.40;100.00
28626;BME280;18905;42.668;23.364;2023-03-13T05:34:26;95614.34;;;2.72;100.00
28626;BME280;18905;42.668;23.364;2023-03-13T05:36:51;95609.63;;;2.84;100.00
28626;BME280;18905;42.668;23.364;2023-03-13T05:39:17;95612.06;;;2.91;100.00
28626;BME280;18905;42.668;23.364;2023-03-13T05:41:42;95620.38;;;2.99;100.00
28626;BME280;18905;42.668;23.364;2023-03-13T05:44:08;95611.34;;;3.05;100.00
28626;BME280;18905;42.668;23.364;2023-03-13T05:46:33;95601.06;;;2.82;99.44
28626;BME280;18905;42.668;23.364;2023-03-13T05:48:58;95600.28;;;2.82;99.72
28626;BME280;18905;42.668;23.364;2023-03-13T05:51:24;95607.19;;;2.78;99.80
28626;BME280;18905;42.668;23.364;2023-03-13T05:53:49;95620.03;;;2.86;99.05
28626;BME280;18905;42.668;23.364;2023-03-13T05:56:15;95620.13;;;3.01;98.67
28626;BME280;18905;42.668;23.364;2023-03-13T05:58:40;95633.06;;;3.19;95.61
28626;BME280;18905;42.668;23.364;2023-03-13T06:01:07;95616.22;;;3.18;94.49
28626;BME280;18905;42.668;23.364;2023-03-13T06:03:33;95631.47;;;3.23;95.29
28626;BME280;18905;42.668;23.364;2023-03-13T06:05:58;95608.81;;;3.25;93.90
28626;BME280;18905;42.668;23.364;2023-03-13T06:08:24;95629.13;;;3.31;92.13
28626;BME280;18905;42.668;23.364;2023-03-13T06:10:50;95640.47;;;3.12;88.92
28626;BME280;18905;42.668;23.364;2023-03-13T06:13:15;95620.34;;;2.58;93.96
28626;BME280;18905;42.668;23.364;2023-03-13T06:15:41;95641.34;;;2.49;100.00
28626;BME280;18905;42.668;23.364;2023-03-13T06:18:06;95636.94;;;2.07;100.00
28626;BME280;18905;42.668;23.364;2023-03-13T06:20:31;95636.47;;;1.83;100.00
28626;BME280;18905;42.668;23.364;2023-03-13T06:22:57;95621.47;;;1.56;100.00
28626;BME280;18905;42.668;23.364;2023-03-13T06:25:22;95637.63;;;1.49;100.00
28626;BME280;18905;42.668;23.364;2023-03-13T06:27:49;95644.94;;;2.07;100.00
28626;BME280;18905;42.668;23.364;2023-03-13T06:30:15;95634.25;;;3.01;100.00
28626;BME280;18905;42.668;23.364;2023-03-13T06:32:40;95643.69;;;3.14;100.00
28626;BME280;18905;42.668;23.364;2023-03-13T06:35:06;95626.91;;;3.80;100.00
28626;BME280;18905;42.668;23.364;2023-03-13T06:37:32;95631.31;;;4.36;96.42
28626;BME280;18905;42.668;23.364;2023-03-13T06:39:58;95626.22;;;5.09;92.27
28626;BME280;18905;42.668;23.364;2023-03-13T06:42:24;95621.47;;;5.80;84.73
28626;BME280;18905;42.668;23.364;2023-03-13T06:44:50;95616.50;;;6.17;79.62
28626;BME280;18905;42.668;23.364;2023-03-13T06:47:15;95618.75;;;6.38;75.31
28626;BME280;18905;42.668;23.364;2023-03-13T06:49:41;95618.13;;;7.18;72.11
28626;BME280;18905;42.668;23.364;2023-03-13T06:52:06;95627.50;;;7.44;67.24
28626;BME280;18905;42.668;23.364;2023-03-13T06:54:32;95636.22;;;7.08;67.71
28626;BME280;18905;42.668;23.364;2023-03-13T06:56:57;95637.88;;;7.56;65.67
28626;BME280;18905;42.668;23.364;2023-03-13T06:59:22;95622.16;;;7.91;58.91
28626;BME280;18905;42.668;23.364;2023-03-13T07:01:48;95628.84;;;7.94;59.54
28626;BME280;18905;42.668;23.364;2023-03-13T07:04:13;95618.94;;;7.89;60.25
28626;BME280;18905;42.668;23.364;2023-03-13T07:06:40;95623.25;;;8.09;58.16
28626;BME280;18905;42.668;23.364;2023-03-13T07:09:05;95616.91;;;8.23;56.52
28626;BME280;18905;42.668;23.364;2023-03-13T07:11:31;95622.78;;;7.60;58.90
28626;BME280;18905;42.668;23.364;2023-03-13T07:13:56;95620.94;;;8.02;56.58
28626;BME280;18905;42.668;23.364;2023-03-13T07:16:25;95612.50;;;7.67;57.39
28626;BME280;18905;42.668;23.364;2023-03-13T07:18:51;95627.69;;;7.76;59.04
28626;BME280;18905;42.668;23.364;2023-03-13T07:21:16;95619.22;;;7.12;59.35
28626;BME280;18905;42.668;23.364;2023-03-13T07:23:42;95598.34;;;7.09;60.37
28626;BME280;18905;42.668;23.364;2023-03-13T07:26:11;95593.44;;;6.16;64.89
28626;BME280;18905;42.668;23.364;2023-03-13T07:28:37;95610.00;;;6.95;62.18
28626;BME280;18905;42.668;23.364;2023-03-13T07:31:10;95610.59;;;7.67;59.90
28626;BME280;18905;42.668;23.364;2023-03-13T07:33:37;95618.47;;;7.35;59.24
28626;BME280;18905;42.668;23.364;2023-03-13T07:36:03;95612.31;;;7.35;59.11
28626;BME280;18905;42.668;23.364;2023-03-13T07:38:28;95609.88;;;7.62;59.22
28626;BME280;18905;42.668;23.364;2023-03-13T07:40:55;95607.97;;;6.82;60.27
28626;BME280;18905;42.668;23.364;2023-03-13T07:43:22;95619.75;;;6.86;61.26
28626;BME280;18905;42.668;23.364;2023-03-13T07:46:02;95619.88;;;5.84;65.79
28626;BME280;18905;42.668;23.364;2023-03-13T07:48:38;95598.41;;;5.89;65.98
28626;BME280;18905;42.668;23.364;2023-03-13T07:51:06;95615.31;;;7.00;63.06
28626;BME280;18905;42.668;23.364;2023-03-13T07:53:33;95616.41;;;6.99;61.89
28626;BME280;18905;42.668;23.364;2023-03-13T07:56:01;95619.78;;;5.20;69.00
28626;BME280;18905;42.668;23.364;2023-03-13T07:58:32;95615.28;;;5.89;72.00
28626;BME280;18905;42.668;23.364;2023-03-13T08:00:57;95589.31;;;5.85;67.22
28626;BME280;18905;42.668;23.364;2023-03-13T08:03:24;95603.31;;;6.59;65.32
28626;BME280;18905;42.668;23.364;2023-03-13T08:06:00;95606.72;;;6.36;65.91
28626;BME280;18905;42.668;23.364;2023-03-13T08:08:26;95590.22;;;6.86;63.60
28626;BME280;18905;42.668;23.364;2023-03-13T08:10:52;95587.88;;;7.31;62.06
28626;BME280;18905;42.668;23.364;2023-03-13T08:13:17;95590.22;;;7.38;60.63
28626;BME280;18905;42.668;23.364;2023-03-13T08:15:42;95588.97;;;7.30;60.23
28626;BME280;18905;42.668;23.364;2023-03-13T08:18:08;95591.50;;;6.93;63.03
28626;BME280;18905;42.668;23.364;2023-03-13T08:20:33;95591.00;;;7.67;59.98
28626;BME280;18905;42.668;23.364;2023-03-13T08:22:58;95591.19;;;7.94;58.77
28626;BME280;18905;42.668;23.364;2023-03-13T08:25:24;95595.13;;;8.01;57.30
28626;BME280;18905;42.668;23.364;2023-03-13T08:27:50;95596.84;;;9.17;54.66
28626;BME280;18905;42.668;23.364;2023-03-13T08:30:15;95597.19;;;8.97;54.27
28626;BME280;18905;42.668;23.364;2023-03-13T08:32:40;95597.78;;;8.43;55.11
28626;BME280;18905;42.668;23.364;2023-03-13T08:35:06;95604.91;;;8.53;55.33
28626;BME280;18905;42.668;23.364;2023-03-13T08:37:32;95601.28;;;8.02;55.01
28626;BME280;18905;42.668;23.364;2023-03-13T08:39:57;95599.06;;;8.83;54.73
28626;BME280;18905;42.668;23.364;2023-03-13T08:42:23;95602.09;;;8.95;53.65
28626;BME280;18905;42.668;23.364;2023-03-13T08:44:48;95597.78;;;8.94;53.15
28626;BME280;18905;42.668;23.364;2023-03-13T08:47:14;95606.31;;;7.90;53.68
28626;BME280;18905;42.668;23.364;2023-03-13T08:49:39;95609.47;;;8.71;54.00
28626;BME280;18905;42.668;23.364;2023-03-13T08:52:05;95595.13;;;8.75;53.98
28626;BME280;18905;42.668;23.364;2023-03-13T08:54:31;95594.94;;;8.53;53.73
28626;BME280;18905;42.668;23.364;2023-03-13T08:56:57;95599.81;;;9.47;52.56
28626;BME280;18905;42.668;23.364;2023-03-13T08:59:24;95582.75;;;10.06;51.62
28626;BME280;18905;42.668;23.364;2023-03-13T09:01:50;95582.94;;;9.42;50.32
28626;BME280;18905;42.668;23.364;2023-03-13T09:04:15;95573.69;;;9.16;51.03
28626;BME280;18905;42.668;23.364;2023-03-13T09:06:41;95586.72;;;9.41;51.07
28626;BME280;18905;42.668;23.364;2023-03-13T09:09:07;95596.47;;;8.22;52.39
28626;BME280;18905;42.668;23.364;2023-03-13T09:11:33;95586.50;;;9.24;53.35
28626;BME280;18905;42.668;23.364;2023-03-13T09:13:59;95570.75;;;10.69;49.65
28626;BME280;18905;42.668;23.364;2023-03-13T09:16:27;95597.88;;;11.00;48.13
28626;BME280;18905;42.668;23.364;2023-03-13T09:18:54;95593.06;;;10.97;48.12
28626;BME280;18905;42.668;23.364;2023-03-13T09:21:22;95587.34;;;10.76;49.09
28626;BME280;18905;42.668;23.364;2023-03-13T09:23:49;95581.88;;;11.64;46.59
28626;BME280;18905;42.668;23.364;2023-03-13T09:26:15;95568.31;;;10.24;47.37
28626;BME280;18905;42.668;23.364;2023-03-13T09:28:41;95580.03;;;9.38;49.65
28626;BME280;18905;42.668;23.364;2023-03-13T09:31:12;95574.03;;;9.68;49.57
28626;BME280;18905;42.668;23.364;2023-03-13T09:33:39;95576.81;;;10.88;48.27
28626;BME280;18905;42.668;23.364;2023-03-13T09:36:05;95584.72;;;11.07;47.07
28626;BME280;18905;42.668;23.364;2023-03-13T09:38:31;95570.03;;;10.77;46.88
28626;BME280;18905;42.668;23.364;2023-03-13T09:41:04;95570.44;;;10.49;47.74
28626;BME280;18905;42.668;23.364;2023-03-13T09:46:03;95576.13;;;9.58;49.00
28626;BME280;18905;42.668;23.364;2023-03-13T09:48:51;95563.34;;;10.17;48.01
28626;BME280;18905;42.668;23.364;2023-03-13T09:51:35;95573.94;;;9.87;48.90
28626;BME280;18905;42.668;23.364;2023-03-13T09:56:33;95582.25;;;9.04;51.13
28626;BME280;18905;42.668;23.364;2023-03-13T10:00:03;95577.50;;;9.15;49.75
28626;BME280;18905;42.668;23.364;2023-03-13T10:02:23;95565.56;;;9.48;49.36
28626;BME280;18905;42.668;23.364;2023-03-13T10:04:55;95568.66;;;9.82;48.25
28626;BME280;18905;42.668;23.364;2023-03-13T10:07:22;95568.63;;;9.95;48.34
28626;BME280;18905;42.668;23.364;2023-03-13T10:09:47;95563.81;;;10.99;47.97
28626;BME280;18905;42.668;23.364;2023-03-13T10:12:27;95555.28;;;10.39;47.67
28626;BME280;18905;42.668;23.364;2023-03-13T10:17:36;95533.97;;;11.04;46.63
28626;BME280;18905;42.668;23.364;2023-03-13T10:20:26;95537.88;;;10.45;47.81
28626;BME280;18905;42.668;23.364;2023-03-13T10:25:32;95528.47;;;10.43;48.05
28626;BME280;18905;42.668;23.364;2023-03-13T10:27:58;95525.34;;;10.71;47.40
28626;BME280;18905;42.668;23.364;2023-03-13T10:30:46;95510.50;;;11.43;46.70
28626;BME280;18905;42.668;23.364;2023-03-13T10:35:42;95494.25;;;10.52;47.19
28626;BME280;18905;42.668;23.364;2023-03-13T10:38:17;95511.16;;;10.88;46.34
28626;BME280;18905;42.668;23.364;2023-03-13T10:40:43;95513.53;;;11.11;46.29
28626;BME280;18905;42.668;23.364;2023-03-13T10:43:20;95502.03;;;11.76;45.50
28626;BME280;18905;42.668;23.364;2023-03-13T10:45:46;95499.69;;;11.13;46.19
28626;BME280;18905;42.668;23.364;2023-03-13T10:50:47;95488.47;;;10.97;47.35
28626;BME280;18905;42.668;23.364;2023-03-13T10:55:52;95484.69;;;10.68;47.60
28626;BME280;18905;42.668;23.364;2023-03-13T10:58:44;95484.91;;;10.00;48.49
28626;BME280;18905;42.668;23.364;2023-03-13T11:01:23;95485.25;;;10.21;48.46
28626;BME280;18905;42.668;23.364;2023-03-13T11:03:50;95472.91;;;10.94;46.99
28626;BME280;18905;42.668;23.364;2023-03-13T11:06:31;95480.91;;;11.08;46.51
28626;BME280;18905;42.668;23.364;2023-03-13T11:09:17;95472.25;;;11.67;46.07
28626;BME280;18905;42.668;23.364;2023-03-13T11:14:13;95464.19;;;12.10;45.40
28626;BME280;18905;42.668;23.364;2023-03-13T11:16:48;95446.97;;;11.24;45.21
28626;BME280;18905;42.668;23.364;2023-03-13T11:22:24;95454.16;;;9.39;48.52
28626;BME280;18905;42.668;23.364;2023-03-13T11:25:02;95445.78;;;9.27;49.20
28626;BME280;18905;42.668;23.364;2023-03-13T11:27:45;95445.66;;;10.30;48.30
28626;BME280;18905;42.668;23.364;2023-03-13T11:33:37;95432.16;;;11.21;46.18
28626;BME280;18905;42.668;23.364;2023-03-13T11:38:40;95433.84;;;10.48;46.36
28626;BME280;18905;42.668;23.364;2023-03-13T11:41:10;95429.41;;;11.13;45.97
28626;BME280;18905;42.668;23.364;2023-03-13T11:43:44;95427.28;;;11.32;46.29
28626;BME280;18905;42.668;23.364;2023-03-13T11:52:06;95392.53;;;11.08;46.19
28626;BME280;18905;42.668;23.364;2023-03-13T11:57:20;95387.19;;;11.34;46.35
28626;BME280;18905;42.668;23.364;2023-03-13T12:05:44;95368.03;;;11.61;45.84
28626;BME280;18905;42.668;23.364;2023-03-13T12:13:51;95369.28;;;12.23;44.97
28626;BME280;18905;42.668;23.364;2023-03-13T12:16:23;95368.00;;;12.29;44.26
28626;BME280;18905;42.668;23.364;2023-03-13T12:18:51;95361.09;;;12.57;43.46
28626;BME280;18905;42.668;23.364;2023-03-13T12:21:27;95323.06;;;12.37;43.34
28626;BME280;18905;42.668;23.364;2023-03-13T12:27:04;95356.22;;;12.25;43.81
28626;BME280;18905;42.668;23.364;2023-03-13T12:29:55;95351.47;;;12.05;44.62
28626;BME280;18905;42.668;23.364;2023-03-13T12:32:36;95343.38;;;11.71;44.79
28626;BME280;18905;42.668;23.364;2023-03-13T12:35:23;95349.47;;;11.12;45.48
28626;BME280;18905;42.668;23.364;2023-03-13T12:38:11;95339.41;;;11.60;45.06
28626;BME280;18905;42.668;23.364;2023-03-13T12:40:56;95352.75;;;12.08;44.58
28626;BME280;18905;42.668;23.364;2023-03-13T12:43:31;95343.34;;;11.97;45.37
28626;BME280;18905;42.668;23.364;2023-03-13T12:56:26;95335.91;;;12.65;43.24
28626;BME280;18905;42.668;23.364;2023-03-13T12:59:02;95350.75;;;12.51;43.62
28626;BME280;18905;42.668;23.364;2023-03-13T13:01:35;95333.16;;;12.74;43.47
28626;BME280;18905;42.668;23.364;2023-03-13T13:04:06;95324.25;;;12.65;42.97
28626;BME280;18905;42.668;23.364;2023-03-13T13:06:56;95350.16;;;12.83;43.69
28626;BME280;18905;42.668;23.364;2023-03-13T13:12:28;95343.13;;;13.28;42.30
28626;BME280;18905;42.668;23.364;2023-03-13T13:14:57;95344.69;;;12.45;43.40
28626;BME280;18905;42.668;23.364;2023-03-13T13:20:48;95346.38;;;12.12;43.94
28626;BME280;18905;42.668;23.364;2023-03-13T13:23:23;95337.00;;;11.93;44.24
28626;BME280;18905;42.668;23.364;2023-03-13T13:25:49;95328.56;;;11.68;44.24
28626;BME280;18905;42.668;23.364;2023-03-13T13:30:47;95336.78;;;12.23;44.38
28626;BME280;18905;42.668;23.364;2023-03-13T13:33:33;95328.41;;;11.73;44.65
28626;BME280;18905;42.668;23.364;2023-03-13T13:38:43;95306.63;;;11.87;44.22
28626;BME280;18905;42.668;23.364;2023-03-13T13:43:41;95323.63;;;12.68;43.63
28626;BME280;18905;42.668;23.364;2023-03-13T13:48:38;95322.59;;;12.81;43.41
28626;BME280;18905;42.668;23.364;2023-03-13T13:53:54;95321.41;;;12.53;42.98
28626;BME280;18905;42.668;23.364;2023-03-13T13:56:36;95320.56;;;12.69;43.10
28626;BME280;18905;42.668;23.364;2023-03-13T14:02:11;95299.66;;;12.41;43.62
28626;BME280;18905;42.668;23.364;2023-03-13T14:07:24;95310.94;;;12.43;43.85
28626;BME280;18905;42.668;23.364;2023-03-13T14:09:53;95312.69;;;12.47;43.26
28626;BME280;18905;42.668;23.364;2023-03-13T14:12:33;95310.22;;;12.08;43.84
28626;BME280;18905;42.668;23.364;2023-03-13T14:17:30;95307.19;;;12.27;43.93
28626;BME280;18905;42.668;23.364;2023-03-13T14:19:56;95291.31;;;12.00;43.79
28626;BME280;18905;42.668;23.364;2023-03-13T14:22:21;95302.28;;;12.03;44.06
28626;BME280;18905;42.668;23.364;2023-03-13T14:24:57;95303.41;;;11.93;44.42
28626;BME280;18905;42.668;23.364;2023-03-13T14:27:22;95296.69;;;12.08;44.21
28626;BME280;18905;42.668;23.364;2023-03-13T14:30:06;95278.66;;;12.29;43.08
28626;BME280;18905;42.668;23.364;2023-03-13T14:32:33;95293.47;;;12.23;43.58
28626;BME280;18905;42.668;23.364;2023-03-13T14:34:58;95302.41;;;12.24;43.24
28626;BME280;18905;42.668;23.364;2023-03-13T14:37:43;95304.34;;;12.06;43.92
28626;BME280;18905;42.668;23.364;2023-03-13T14:42:55;95302.19;;;12.46;43.29
28626;BME280;18905;42.668;23.364;2023-03-13T14:45:27;95299.59;;;12.49;43.24
28626;BME280;18905;42.668;23.364;2023-03-13T14:47:54;95301.72;;;12.81;42.54